Time;durP1;ratioP1;P1;durP2;ratioP2;P2;SDS_P1;SDS_P2;PMS_P1;PMS_P2;Temp;Humidity;BMP_temperature;BMP_pressure;BME280_temperature;BME280_humidity;BME280_pressure;Samples;Min_cycle;Max_cycle;Signal;HPM_P1;HPM_P2
2023/04/16 00:01:48;;;;;;;;;;;;;;;10.77;73.79;102195.34;4947299;28;20005;-43
2023/04/16 00:04:14;;;;;;;;;;;;;;;10.85;72.82;102193.75;4947678;28;19929;-44
2023/04/16 00:06:39;;;;;;;;;;;;;;;10.83;73.18;102185.16;4949450;28;19922;-43
2023/04/16 00:09:04;;;;;;;;;;;;;;;10.70;73.44;102179.72;4947614;28;19961;-42
2023/04/16 00:11:30;;;;;;;;;;;;;;;10.75;73.74;102191.88;4949403;28;19929;-42
2023/04/16 00:13:55;;;;;;;;;;;;;;;10.59;73.67;102179.53;4949631;28;19927;-42
2023/04/16 00:16:20;;;;;;;;;;;;;;;10.91;74.05;102208.50;4950591;28;20023;-42
2023/04/16 00:18:45;;;;;;;;;;;;;;;11.02;73.55;102219.00;4947277;28;20447;-43
2023/04/16 00:21:11;;;;;;;;;;;;;;;10.46;74.63;102184.44;4947846;28;19928;-42
2023/04/16 00:23:36;;;;;;;;;;;;;;;10.80;75.59;102216.03;4947754;28;19922;-42
2023/04/16 00:26:02;;;;;;;;;;;;;;;10.66;75.62;102212.31;4946439;28;19927;-42
2023/04/16 00:28:27;;;;;;;;;;;;;;;10.67;75.36;102217.53;4944967;28;20383;-43
2023/04/16 00:30:52;;;;;;;;;;;;;;;10.55;77.02;102208.66;4947225;28;20363;-43
2023/04/16 00:33:18;;;;;;;;;;;;;;;10.61;75.52;102214.81;4948646;28;19933;-45
2023/04/16 00:35:46;;;;;;;;;;;;;;;10.72;76.01;102238.22;4946750;28;19996;-45
2023/04/16 00:38:11;;;;;;;;;;;;;;;10.95;74.94;102253.25;4947443;28;19922;-44
2023/04/16 00:40:37;;;;;;;;;;;;;;;10.77;74.95;102230.59;4948562;28;19929;-44
2023/04/16 00:43:02;;;;;;;;;;;;;;;10.93;74.89;102242.06;4948208;28;19937;-44
2023/04/16 00:45:27;;;;;;;;;;;;;;;10.61;75.36;102219.09;4948032;28;19926;-43
2023/04/16 00:47:52;;;;;;;;;;;;;;;11.05;74.26;102255.16;4945710;28;19925;-43
2023/04/16 00:50:18;;;;;;;;;;;;;;;10.73;74.29;102211.59;4948278;28;19919;-43
2023/04/16 00:52:45;;;;;;;;;;;;;;;10.81;74.14;102220.34;4947315;28;19929;-42
2023/04/16 00:55:12;;;;;;;;;;;;;;;10.91;74.36;102234.28;4944080;28;19931;-43
2023/04/16 00:57:37;;;;;;;;;;;;;;;10.80;74.03;102220.31;4945610;28;19922;-43
2023/04/16 01:00:02;;;;;;;;;;;;;;;10.67;75.50;102219.19;4948116;28;20467;-43
2023/04/16 01:02:28;;;;;;;;;;;;;;;10.74;73.80;102215.94;4946128;28;19952;-43
2023/04/16 01:04:53;;;;;;;;;;;;;;;10.97;73.06;102228.34;4946748;28;19922;-43
2023/04/16 01:07:18;;;;;;;;;;;;;;;10.52;74.85;102193.16;4947629;28;19922;-43
2023/04/16 01:09:44;;;;;;;;;;;;;;;10.72;74.23;102222.75;4942367;28;19926;-44
2023/04/16 01:12:09;;;;;;;;;;;;;;;10.38;75.39;102201.47;4941628;28;19922;-45
2023/04/16 01:14:35;;;;;;;;;;;;;;;10.37;76.56;102210.03;4945288;28;19987;-44
2023/04/16 01:17:01;;;;;;;;;;;;;;;10.83;74.98;102257.34;4944293;28;19922;-44
2023/04/16 01:19:27;;;;;;;;;;;;;;;10.74;75.68;102245.97;4942661;28;20571;-44
2023/04/16 01:21:53;;;;;;;;;;;;;;;10.79;75.07;102258.13;4944301;28;19945;-44
2023/04/16 01:24:18;;;;;;;;;;;;;;;10.38;77.14;102222.09;4943854;28;20387;-44
2023/04/16 01:26:43;;;;;;;;;;;;;;;10.38;78.96;102227.25;4945046;28;20299;-44
2023/04/16 01:29:08;;;;;;;;;;;;;;;10.51;78.33;102259.25;4941399;28;20012;-43
2023/04/16 01:31:34;;;;;;;;;;;;;;;10.39;78.43;102259.03;4945012;28;20032;-43
2023/04/16 01:33:59;;;;;;;;;;;;;;;10.35;79.27;102268.38;4942604;28;19922;-43
2023/04/16 01:36:25;;;;;;;;;;;;;;;10.35;79.88;102276.09;4944570;28;20166;-43
2023/04/16 01:38:50;;;;;;;;;;;;;;;10.31;81.66;102294.94;4943694;28;19922;-43
2023/04/16 01:41:16;;;;;;;;;;;;;;;10.35;83.29;102312.19;4943102;28;19918;-43
2023/04/16 01:43:41;;;;;;;;;;;;;;;10.31;86.48;102323.28;4944516;28;19923;-43
2023/04/16 01:46:27;;;;;;;;;;;;;;;10.53;88.75;102364.97;4942385;28;20479;-42
2023/04/16 01:48:55;;;;;;;;;;;;;;;10.01;92.26;102334.56;4942683;28;19926;-43
2023/04/16 01:51:20;;;;;;;;;;;;;;;10.30;94.55;102375.63;4943113;28;19978;-44
2023/04/16 01:53:46;;;;;;;;;;;;;;;10.34;96.43;102390.31;4944737;28;20000;-44
2023/04/16 01:56:11;;;;;;;;;;;;;;;9.97;98.55;102376.53;4943696;28;20077;-44
2023/04/16 01:58:37;;;;;;;;;;;;;;;10.15;100.00;102408.69;4942651;28;19922;-44
2023/04/16 02:01:03;;;;;;;;;;;;;;;10.07;100.00;102431.69;4941102;28;20185;-44
2023/04/16 02:03:28;;;;;;;;;;;;;;;10.05;100.00;102441.06;4944948;28;19922;-44
2023/04/16 02:05:53;;;;;;;;;;;;;;;10.39;100.00;102481.47;4940791;28;19930;-44
2023/04/16 02:08:18;;;;;;;;;;;;;;;10.51;100.00;102500.63;4942565;28;19965;-43
2023/04/16 02:10:47;;;;;;;;;;;;;;;10.31;100.00;102490.72;4942990;28;20320;-42
2023/04/16 02:13:13;;;;;;;;;;;;;;;10.51;100.00;102509.22;4941704;28;20331;-43
2023/04/16 02:15:38;;;;;;;;;;;;;;;10.17;100.00;102489.44;4943011;28;19926;-43
2023/04/16 02:18:04;;;;;;;;;;;;;;;10.53;100.00;102524.75;4942877;28;19923;-43
2023/04/16 02:20:29;;;;;;;;;;;;;;;10.86;100.00;102547.91;4943794;28;19922;-44
2023/04/16 02:22:54;;;;;;;;;;;;;;;10.48;100.00;102496.28;4943792;28;19969;-44
2023/04/16 02:25:20;;;;;;;;;;;;;;;10.64;100.00;102500.09;4945925;28;19974;-44
2023/04/16 02:27:45;;;;;;;;;;;;;;;10.75;100.00;102497.78;4944433;28;20517;-44
2023/04/16 02:30:10;;;;;;;;;;;;;;;10.60;100.00;102470.78;4946900;28;19946;-44
2023/04/16 02:32:35;;;;;;;;;;;;;;;10.56;100.00;102447.50;4944636;28;19961;-45
2023/04/16 02:35:02;;;;;;;;;;;;;;;10.80;100.00;102450.63;4945339;28;19919;-45
2023/04/16 02:37:28;;;;;;;;;;;;;;;10.63;100.00;102431.38;4946829;28;20634;-44
2023/04/16 02:39:53;;;;;;;;;;;;;;;10.62;100.00;102415.00;4944655;28;19923;-43
2023/04/16 02:42:18;;;;;;;;;;;;;;;10.36;100.00;102391.22;4945641;28;20491;-43
2023/04/16 02:44:43;;;;;;;;;;;;;;;10.64;100.00;102413.34;4946867;28;19957;-43
2023/04/16 02:47:08;;;;;;;;;;;;;;;10.91;99.10;102429.41;4946142;28;19967;-43
2023/04/16 02:49:34;;;;;;;;;;;;;;;10.85;97.34;102397.47;4943171;28;19926;-45
2023/04/16 02:51:59;;;;;;;;;;;;;;;10.67;97.79;102367.03;4945008;28;19975;-44
2023/04/16 02:54:25;;;;;;;;;;;;;;;10.75;96.88;102379.19;4945126;28;19926;-44
2023/04/16 02:56:50;;;;;;;;;;;;;;;10.67;96.59;102368.69;4945427;28;19933;-44
2023/04/16 02:59:15;;;;;;;;;;;;;;;10.85;95.54;102374.25;4943816;28;19922;-43
2023/04/16 03:01:40;;;;;;;;;;;;;;;10.42;94.98;102331.22;4946432;28;20469;-43
2023/04/16 03:04:06;;;;;;;;;;;;;;;10.41;94.88;102329.50;4944378;28;19945;-43
2023/04/16 03:06:31;;;;;;;;;;;;;;;10.45;94.49;102334.75;4943424;28;19922;-43
2023/04/16 03:08:56;;;;;;;;;;;;;;;10.57;95.14;102341.88;4945256;28;19926;-43
2023/04/16 03:11:22;;;;;;;;;;;;;;;10.68;94.52;102350.69;4943624;28;19922;-43
2023/04/16 03:13:47;;;;;;;;;;;;;;;10.78;94.63;102359.50;4943016;28;20001;-43
2023/04/16 03:16:12;;;;;;;;;;;;;;;10.74;93.84;102355.13;4944208;28;20315;-43
2023/04/16 03:18:38;;;;;;;;;;;;;;;10.51;91.94;102320.25;4943963;28;20021;-43
2023/04/16 03:21:03;;;;;;;;;;;;;;;10.52;93.59;102328.03;4946068;28;19922;-44
2023/04/16 03:23:29;;;;;;;;;;;;;;;10.94;91.83;102357.25;4946275;28;19975;-44
2023/04/16 03:25:54;;;;;;;;;;;;;;;10.62;92.49;102326.50;4946599;28;19953;-44
2023/04/16 03:28:20;;;;;;;;;;;;;;;10.87;90.95;102346.78;4944067;28;19926;-43
2023/04/16 03:30:51;;;;;;;;;;;;;;;10.64;90.94;102307.66;4938842;28;19930;-43
2023/04/16 03:33:17;;;;;;;;;;;;;;;10.73;88.85;102312.13;4945380;28;19922;-44
2023/04/16 03:35:42;;;;;;;;;;;;;;;10.93;87.63;102315.13;4943186;28;19976;-43
2023/04/16 03:38:07;;;;;;;;;;;;;;;10.86;88.81;102298.66;4944816;28;20294;-43
2023/04/16 03:40:32;;;;;;;;;;;;;;;10.65;88.17;102287.91;4946569;28;20290;-44
2023/04/16 03:42:57;;;;;;;;;;;;;;;10.32;89.20;102267.47;4946417;28;20257;-44
2023/04/16 03:45:23;;;;;;;;;;;;;;;10.29;90.25;102267.41;4944819;28;19979;-44
2023/04/16 03:47:51;;;;;;;;;;;;;;;11.09;88.75;102345.53;4944964;28;20092;-43
2023/04/16 03:50:17;;;;;;;;;;;;;;;11.07;88.00;102338.59;4943644;28;19922;-43
2023/04/16 03:52:43;;;;;;;;;;;;;;;10.57;87.50;102276.56;4945183;28;19918;-43
2023/04/16 03:55:08;;;;;;;;;;;;;;;11.05;87.13;102319.66;4944975;28;20554;-48
2023/04/16 03:57:33;;;;;;;;;;;;;;;10.98;84.82;102307.47;4945994;28;19930;-43
2023/04/16 03:59:59;;;;;;;;;;;;;;;11.04;83.87;102286.97;4944971;28;20438;-43
2023/04/16 04:02:24;;;;;;;;;;;;;;;10.63;84.44;102238.06;4945947;28;19983;-42
2023/04/16 04:04:49;;;;;;;;;;;;;;;10.57;84.17;102237.91;4944899;28;20019;-43
2023/04/16 04:07:15;;;;;;;;;;;;;;;10.52;84.96;102242.13;4944477;28;19922;-44
2023/04/16 04:09:40;;;;;;;;;;;;;;;10.72;85.30;102261.44;4946009;28;19980;-44
2023/04/16 04:12:05;;;;;;;;;;;;;;;10.41;87.28;102245.31;4944586;28;19918;-44
2023/04/16 04:14:30;;;;;;;;;;;;;;;10.21;88.53;102249.16;4946984;28;20037;-44
2023/04/16 04:16:55;;;;;;;;;;;;;;;10.74;88.34;102308.72;4943756;28;19922;-44
2023/04/16 04:19:21;;;;;;;;;;;;;;;10.44;87.72;102289.19;4944677;28;19918;-44
2023/04/16 04:21:46;;;;;;;;;;;;;;;10.67;87.85;102301.69;4943848;28;19985;-43
2023/04/16 04:24:11;;;;;;;;;;;;;;;10.43;87.84;102284.88;4942759;28;20275;-44
2023/04/16 04:26:36;;;;;;;;;;;;;;;10.50;87.45;102288.47;4946653;28;19926;-44
2023/04/16 04:29:02;;;;;;;;;;;;;;;10.77;86.03;102307.94;4943194;28;19926;-43
2023/04/16 04:31:27;;;;;;;;;;;;;;;10.60;87.19;102300.69;4946622;28;19923;-42
2023/04/16 04:33:52;;;;;;;;;;;;;;;10.55;87.97;102291.13;4945180;28;19930;-42
2023/04/16 04:36:17;;;;;;;;;;;;;;;10.48;88.07;102284.97;4944544;28;20339;-42
2023/04/16 04:38:43;;;;;;;;;;;;;;;10.56;87.83;102300.59;4944767;28;20334;-42
2023/04/16 04:41:08;;;;;;;;;;;;;;;10.52;87.80;102299.69;4944256;28;20270;-43
2023/04/16 04:43:33;;;;;;;;;;;;;;;10.78;87.51;102331.13;4944257;28;20298;-43
2023/04/16 04:45:58;;;;;;;;;;;;;;;10.67;87.11;102317.16;4944682;28;20076;-43
2023/04/16 04:48:25;;;;;;;;;;;;;;;10.62;86.06;102304.16;4943059;28;19929;-43
2023/04/16 04:50:50;;;;;;;;;;;;;;;10.84;85.33;102327.84;4943439;28;19926;-43
2023/04/16 04:53:15;;;;;;;;;;;;;;;11.05;84.02;102328.25;4943567;28;19933;-43
2023/04/16 04:55:41;;;;;;;;;;;;;;;10.88;83.43;102306.44;4944181;28;20021;-43
2023/04/16 04:58:06;;;;;;;;;;;;;;;10.15;86.22;102247.34;4945053;28;20056;-43
2023/04/16 05:00:32;;;;;;;;;;;;;;;10.60;85.74;102289.50;4944684;28;20305;-43
2023/04/16 05:02:57;;;;;;;;;;;;;;;10.35;87.24;102277.81;4943519;28;20287;-43
2023/04/16 05:05:22;;;;;;;;;;;;;;;10.56;86.76;102318.63;4941758;28;20218;-43
2023/04/16 05:07:48;;;;;;;;;;;;;;;10.40;88.68;102318.31;4944164;28;20166;-43
2023/04/16 05:10:13;;;;;;;;;;;;;;;10.32;88.93;102308.69;4942852;28;20310;-43
2023/04/16 05:12:38;;;;;;;;;;;;;;;10.24;91.51;102318.75;4942746;28;20106;-43
2023/04/16 05:15:04;;;;;;;;;;;;;;;10.26;93.06;102348.00;4944109;28;20406;-43
2023/04/16 05:17:29;;;;;;;;;;;;;;;10.31;93.42;102366.16;4943303;28;19923;-43
2023/04/16 05:19:55;;;;;;;;;;;;;;;10.19;93.63;102359.00;4941797;28;19928;-43
2023/04/16 05:22:20;;;;;;;;;;;;;;;10.34;94.42;102390.31;4942526;28;19930;-43
2023/04/16 05:24:45;;;;;;;;;;;;;;;10.31;93.98;102385.09;4944757;28;19934;-43
2023/04/16 05:27:10;;;;;;;;;;;;;;;10.57;92.81;102408.88;4941867;28;19929;-42
2023/04/16 05:29:36;;;;;;;;;;;;;;;11.04;89.58;102437.44;4942117;28;19927;-43
2023/04/16 05:32:01;;;;;;;;;;;;;;;10.96;88.22;102407.16;4943882;28;19923;-43
2023/04/16 05:34:26;;;;;;;;;;;;;;;10.53;87.83;102363.25;4942797;28;19929;-43
2023/04/16 05:36:51;;;;;;;;;;;;;;;10.67;87.44;102364.44;4943837;28;20171;-43
2023/04/16 05:39:17;;;;;;;;;;;;;;;10.48;88.23;102353.69;4942237;28;19925;-43
2023/04/16 05:41:42;;;;;;;;;;;;;;;10.39;88.94;102346.63;4941487;28;19922;-43
2023/04/16 05:44:07;;;;;;;;;;;;;;;10.37;88.80;102359.47;4943308;28;20375;-43
2023/04/16 05:46:33;;;;;;;;;;;;;;;10.58;88.35;102386.53;4942497;28;20548;-42
2023/04/16 05:48:58;;;;;;;;;;;;;;;10.15;87.96;102346.88;4943180;28;20411;-43
2023/04/16 05:51:24;;;;;;;;;;;;;;;10.34;86.57;102354.25;4942369;28;20458;-43
2023/04/16 05:53:50;;;;;;;;;;;;;;;10.70;86.07;102367.91;4944301;28;20213;-43
2023/04/16 05:56:15;;;;;;;;;;;;;;;10.65;84.29;102360.06;4944192;28;19922;-43
2023/04/16 05:58:40;;;;;;;;;;;;;;;10.67;83.74;102345.50;4941519;28;19922;-43
2023/04/16 06:01:06;;;;;;;;;;;;;;;10.91;81.58;102346.88;4944725;28;19922;-42
2023/04/16 06:03:31;;;;;;;;;;;;;;;10.83;80.82;102329.53;4946089;28;19948;-43
2023/04/16 06:05:56;;;;;;;;;;;;;;;10.41;80.03;102285.69;4946507;28;20446;-43
2023/04/16 06:08:22;;;;;;;;;;;;;;;11.19;79.38;102333.66;4946471;28;19981;-43
2023/04/16 06:10:47;;;;;;;;;;;;;;;11.18;75.55;102294.97;4946140;28;19923;-43
2023/04/16 06:13:12;;;;;;;;;;;;;;;10.44;77.59;102222.19;4944910;28;19962;-43
2023/04/16 06:15:37;;;;;;;;;;;;;;;11.55;74.63;102299.03;4946098;28;19999;-43
2023/04/16 06:18:03;;;;;;;;;;;;;;;10.35;76.29;102198.81;4946824;28;20013;-43
2023/04/16 06:20:28;;;;;;;;;;;;;;;11.07;73.65;102243.16;4945845;28;20430;-43
2023/04/16 06:22:54;;;;;;;;;;;;;;;10.92;73.67;102204.19;4944516;28;20445;-43
2023/04/16 06:25:19;;;;;;;;;;;;;;;11.10;72.24;102192.50;4945209;28;19922;-43
2023/04/16 06:27:44;;;;;;;;;;;;;;;11.21;70.04;102172.03;4943447;28;20299;-43
2023/04/16 06:30:10;;;;;;;;;;;;;;;11.28;69.89;102157.53;4946065;28;20168;-43
2023/04/16 06:32:36;;;;;;;;;;;;;;;11.39;68.84;102160.28;4948191;28;20017;-43
2023/04/16 06:35:01;;;;;;;;;;;;;;;11.94;67.92;102163.69;4945766;28;20021;-43
2023/04/16 06:37:26;;;;;;;;;;;;;;;11.65;67.30;102102.16;4946435;28;20021;-43
2023/04/16 06:39:51;;;;;;;;;;;;;;;11.56;66.67;102052.97;4943967;28;20040;-43
2023/04/16 06:42:16;;;;;;;;;;;;;;;11.96;65.24;102040.59;4945784;28;20525;-43
2023/04/16 06:44:42;;;;;;;;;;;;;;;11.93;64.59;101999.25;4948634;28;19929;-42
2023/04/16 06:47:07;;;;;;;;;;;;;;;11.06;68.81;101885.50;4944422;28;19922;-43
2023/04/16 06:49:32;;;;;;;;;;;;;;;11.46;64.44;101919.53;4948844;28;20308;-43
2023/04/16 06:51:57;;;;;;;;;;;;;;;11.07;66.46;101887.25;4947773;28;20356;-42
2023/04/16 06:54:23;;;;;;;;;;;;;;;11.32;64.74;101919.38;4948039;28;20415;-44
2023/04/16 06:56:48;;;;;;;;;;;;;;;11.11;64.34;101912.25;4950009;28;20403;-42
2023/04/16 06:59:13;;;;;;;;;;;;;;;10.87;65.63;101929.09;4948141;28;19923;-43
2023/04/16 07:01:40;;;;;;;;;;;;;;;11.40;63.91;101984.81;4948723;28;19930;-42
2023/04/16 07:04:05;;;;;;;;;;;;;;;12.00;63.25;102016.53;4950750;28;19923;-42
2023/04/16 07:06:30;;;;;;;;;;;;;;;12.30;62.54;101987.53;4946248;28;20012;-42
2023/04/16 07:08:56;;;;;;;;;;;;;;;12.35;63.33;101936.75;4949258;28;19925;-43
2023/04/16 07:11:21;;;;;;;;;;;;;;;11.76;66.01;101848.41;4949340;28;19922;-43
2023/04/16 07:13:46;;;;;;;;;;;;;;;12.26;63.88;101854.00;4949819;28;19930;-43
2023/04/16 07:16:11;;;;;;;;;;;;;;;11.43;66.38;101785.31;4950091;28;20401;-43
2023/04/16 07:18:38;;;;;;;;;;;;;;;13.35;62.48;101882.16;4945037;28;20219;-43
2023/04/16 07:21:04;;;;;;;;;;;;;;;13.04;68.25;101763.00;4947054;28;19922;-43
2023/04/16 07:23:29;;;;;;;;;;;;;;;12.47;76.72;101610.31;4947033;28;19922;-43
2023/04/16 07:25:55;;;;;;;;;;;;;;;13.68;74.54;101624.94;4947756;28;19933;-43
2023/04/16 07:28:20;;;;;;;;;;;;;;;11.98;81.11;101455.22;4945310;28;20348;-43
2023/04/16 07:30:45;;;;;;;;;;;;;;;10.53;80.05;101396.09;4945408;28;19932;-43
2023/04/16 07:33:11;;;;;;;;;;;;;;;10.69;72.17;101490.69;4945258;28;19969;-43
2023/04/16 07:35:36;;;;;;;;;;;;;;;11.36;66.20;101610.63;4945574;28;19926;-43
2023/04/16 07:38:01;;;;;;;;;;;;;;;11.92;61.66;101703.09;4945482;28;20078;-43
2023/04/16 07:40:27;;;;;;;;;;;;;;;11.84;62.63;101725.41;4945406;28;19929;-43
2023/04/16 07:42:52;;;;;;;;;;;;;;;10.96;68.29;101654.19;4944302;28;20275;-42
2023/04/16 07:45:17;;;;;;;;;;;;;;;11.56;64.61;101735.50;4944694;28;20109;-42
2023/04/16 07:47:44;;;;;;;;;;;;;;;11.03;64.32;101744.50;4941600;28;20011;-43
2023/04/16 07:50:09;;;;;;;;;;;;;;;10.73;62.30;101775.97;4944381;28;20003;-43
2023/04/16 07:52:34;;;;;;;;;;;;;;;10.55;63.63;101806.66;4946386;28;19999;-43
2023/04/16 07:54:59;;;;;;;;;;;;;;;11.37;60.45;101898.78;4945369;28;19925;-43
2023/04/16 07:57:25;;;;;;;;;;;;;;;11.03;62.55;101877.75;4945048;28;19929;-43
2023/04/16 07:59:50;;;;;;;;;;;;;;;11.18;61.57;101911.47;4945729;28;19922;-42
2023/04/16 08:02:15;;;;;;;;;;;;;;;11.29;61.20;101937.41;4944850;28;19929;-43
2023/04/16 08:04:41;;;;;;;;;;;;;;;11.40;62.48;101940.09;4944307;28;19922;-43
2023/04/16 08:07:06;;;;;;;;;;;;;;;11.12;62.90;101897.63;4939640;28;19969;-43
2023/04/16 08:09:31;;;;;;;;;;;;;;;10.92;63.59;101877.59;4946560;28;19930;-43
2023/04/16 08:11:57;;;;;;;;;;;;;;;11.56;60.50;101929.09;4944874;28;20688;-42
2023/04/16 08:14:22;;;;;;;;;;;;;;;12.18;58.59;101947.81;4945441;28;20204;-43
2023/04/16 08:16:47;;;;;;;;;;;;;;;12.11;62.04;101890.94;4945178;28;19922;-43
2023/04/16 08:19:12;;;;;;;;;;;;;;;11.50;63.91;101781.94;4942496;28;20085;-43
2023/04/16 08:21:37;;;;;;;;;;;;;;;13.37;56.05;101894.22;4945638;28;19926;-42
2023/04/16 08:24:03;;;;;;;;;;;;;;;11.58;65.94;101723.47;4945564;28;20226;-43
2023/04/16 08:26:28;;;;;;;;;;;;;;;12.03;62.49;101742.75;4944703;28;20316;-43
2023/04/16 08:28:53;;;;;;;;;;;;;;;11.24;67.07;101679.38;4945098;28;20294;-42
2023/04/16 08:31:18;;;;;;;;;;;;;;;11.35;64.65;101706.97;4946737;28;20427;-42
2023/04/16 08:33:44;;;;;;;;;;;;;;;11.89;62.35;101739.25;4946759;28;19925;-42
2023/04/16 08:36:09;;;;;;;;;;;;;;;11.09;66.25;101689.56;4944849;28;19921;-42
2023/04/16 08:38:34;;;;;;;;;;;;;;;11.01;62.23;101737.59;4947348;28;19919;-42
2023/04/16 08:41:04;;;;;;;;;;;;;;;11.48;58.85;101810.31;4945903;28;19914;-42
2023/04/16 08:43:31;;;;;;;;;;;;;;;12.32;58.13;101858.34;4945155;28;19938;-43
2023/04/16 08:45:58;;;;;;;;;;;;;;;11.85;61.04;101799.44;4942501;28;20165;-43
2023/04/16 08:48:23;;;;;;;;;;;;;;;11.45;60.53;101773.28;4942287;28;19957;-42
2023/04/16 08:50:49;;;;;;;;;;;;;;;11.14;60.14;101792.75;4939932;28;19973;-43
2023/04/16 08:53:16;;;;;;;;;;;;;;;11.07;59.99;101818.47;4943606;28;19919;-43
2023/04/16 08:55:44;;;;;;;;;;;;;;;10.87;60.06;101836.28;4943059;28;19917;-42
2023/04/16 08:58:13;;;;;;;;;;;;;;;11.52;56.36;101917.03;4941615;28;19926;-42
2023/04/16 09:00:39;;;;;;;;;;;;;;;11.67;57.76;101918.88;4944319;28;19918;-42
2023/04/16 09:03:05;;;;;;;;;;;;;;;11.90;57.41;101922.59;4944645;28;20367;-42
2023/04/16 09:05:30;;;;;;;;;;;;;;;11.78;57.53;101901.78;4943370;28;19976;-43
2023/04/16 09:07:55;;;;;;;;;;;;;;;11.10;60.59;101856.34;4943859;28;20177;-42
2023/04/16 09:10:21;;;;;;;;;;;;;;;11.10;58.17;101888.13;4945228;28;19968;-43
2023/04/16 09:12:46;;;;;;;;;;;;;;;11.71;56.03;101942.16;4943190;28;19930;-43
2023/04/16 09:15:11;;;;;;;;;;;;;;;12.20;60.36;101904.75;4944981;28;19925;-44
2023/04/16 09:17:37;;;;;;;;;;;;;;;11.74;61.29;101838.06;4943921;28;20251;-44
2023/04/16 09:20:04;;;;;;;;;;;;;;;11.77;59.53;101832.06;4937554;28;19979;-44
2023/04/16 09:22:30;;;;;;;;;;;;;;;12.05;60.37;101826.31;4943008;28;19925;-44
2023/04/16 09:24:55;;;;;;;;;;;;;;;13.15;58.87;101853.59;4941117;28;20019;-44
2023/04/16 09:27:20;;;;;;;;;;;;;;;12.34;62.03;101753.28;4944681;28;20400;-44
2023/04/16 09:29:45;;;;;;;;;;;;;;;11.69;65.43;101701.19;4941636;28;20299;-44
2023/04/16 09:32:11;;;;;;;;;;;;;;;11.73;64.77;101702.09;4944036;28;20509;-44
2023/04/16 09:34:55;;;;;;;;;;;;;;;12.31;63.66;101728.25;4944379;28;20398;-44
2023/04/16 09:37:20;;;;;;;;;;;;;;;12.29;64.40;101701.59;4940999;28;19915;-44
2023/04/16 09:39:52;;;;;;;;;;;;;;;12.22;64.27;101696.38;4942195;28;19926;-44
2023/04/16 09:42:20;;;;;;;;;;;;;;;12.05;64.72;101689.41;4943048;28;19968;-44
2023/04/16 09:44:45;;;;;;;;;;;;;;;12.16;64.47;101696.31;4943035;28;20005;-44
2023/04/16 09:47:11;;;;;;;;;;;;;;;12.21;63.80;101708.41;4939525;28;20021;-44
2023/04/16 09:49:41;;;;;;;;;;;;;;;12.70;62.70;101724.13;4943243;28;20087;-44
2023/04/16 09:52:16;;;;;;;;;;;;;;;12.61;65.57;101685.28;4940853;28;20211;-42
2023/04/16 09:54:53;;;;;;;;;;;;;;;12.68;65.96;101668.06;4943936;28;20275;-42
2023/04/16 09:57:20;;;;;;;;;;;;;;;12.35;68.91;101630.97;4942455;28;19922;-42
2023/04/16 09:59:45;;;;;;;;;;;;;;;12.11;68.77;101622.28;4944563;28;19948;-42
2023/04/16 10:02:10;;;;;;;;;;;;;;;12.26;67.95;101628.34;4941912;28;20294;-40
2023/04/16 10:04:49;;;;;;;;;;;;;;;12.43;66.79;101644.78;4937789;28;19964;-42
2023/04/16 10:07:14;;;;;;;;;;;;;;;13.06;62.19;101686.25;4941498;28;19949;-42
2023/04/16 10:09:40;;;;;;;;;;;;;;;12.68;66.60;101644.81;4945218;28;20540;-41
2023/04/16 10:12:05;;;;;;;;;;;;;;;12.93;66.44;101654.34;4941857;28;20466;-41
2023/04/16 10:14:31;;;;;;;;;;;;;;;13.58;65.89;101672.47;4942183;28;19922;-41
2023/04/16 10:16:56;;;;;;;;;;;;;;;13.23;66.14;101644.88;4942582;28;19919;-40
2023/04/16 10:19:21;;;;;;;;;;;;;;;12.63;70.22;101590.50;4944677;28;20428;-41
2023/04/16 10:21:47;;;;;;;;;;;;;;;12.97;67.65;101627.59;4938156;28;20450;-41
2023/04/16 10:24:15;;;;;;;;;;;;;;;13.18;66.79;101631.03;4942089;28;20387;-41
2023/04/16 10:26:40;;;;;;;;;;;;;;;13.41;70.69;101607.78;4939242;28;19926;-41
2023/04/16 10:29:05;;;;;;;;;;;;;;;13.46;68.78;101602.59;4937188;28;19922;-41
2023/04/16 10:31:31;;;;;;;;;;;;;;;13.06;75.47;101540.50;4942767;28;19919;-41
2023/04/16 10:33:56;;;;;;;;;;;;;;;13.36;74.16;101537.03;4939882;28;19984;-40
2023/04/16 10:36:22;;;;;;;;;;;;;;;13.43;72.29;101543.06;4941957;28;19933;-41
2023/04/16 10:38:48;;;;;;;;;;;;;;;12.81;75.49;101512.09;4934638;28;19922;-41
2023/04/16 10:41:13;;;;;;;;;;;;;;;12.42;75.98;101493.13;4940479;28;19922;-41
2023/04/16 10:43:40;;;;;;;;;;;;;;;12.67;71.12;101539.69;4940470;28;20275;-41
2023/04/16 10:46:20;;;;;;;;;;;;;;;12.33;69.51;101552.56;4946266;28;19933;-41
2023/04/16 10:48:46;;;;;;;;;;;;;;;12.34;67.74;101593.06;4944021;28;20188;-41
2023/04/16 10:51:30;;;;;;;;;;;;;;;12.41;66.73;101612.91;4945793;28;20410;-41
2023/04/16 10:54:08;;;;;;;;;;;;;;;12.59;66.25;101629.28;4945445;28;20004;-41
2023/04/16 10:56:34;;;;;;;;;;;;;;;13.06;66.59;101651.75;4944316;28;19922;-41
2023/04/16 10:58:59;;;;;;;;;;;;;;;12.83;68.26;101611.22;4944879;28;20350;-41
2023/04/16 11:01:31;;;;;;;;;;;;;;;12.70;69.69;101601.72;4947294;28;20159;-41
2023/04/16 11:04:00;;;;;;;;;;;;;;;13.09;69.51;101595.72;4945161;28;20021;-41
2023/04/16 11:06:26;;;;;;;;;;;;;;;12.93;71.32;101569.00;4943278;28;19922;-41
2023/04/16 11:08:51;;;;;;;;;;;;;;;12.97;68.58;101581.03;4945869;28;19984;-41
2023/04/16 11:11:17;;;;;;;;;;;;;;;12.54;71.31;101562.06;4943655;28;19925;-41
2023/04/16 11:13:43;;;;;;;;;;;;;;;12.91;66.92;101591.41;4945797;28;20394;-41
2023/04/16 11:16:09;;;;;;;;;;;;;;;12.69;70.99;101569.00;4939107;28;19934;-41
2023/04/16 11:18:34;;;;;;;;;;;;;;;13.03;71.85;101571.56;4943802;28;20143;-41
2023/04/16 11:20:59;;;;;;;;;;;;;;;12.97;70.13;101559.50;4942509;28;20070;-41
2023/04/16 11:23:25;;;;;;;;;;;;;;;12.94;71.71;101550.00;4947346;28;20339;-41
2023/04/16 11:25:55;;;;;;;;;;;;;;;13.00;73.33;101533.63;4943246;28;19926;-41
2023/04/16 11:28:21;;;;;;;;;;;;;;;13.76;73.19;101540.34;4943431;28;20389;-41
2023/04/16 11:30:46;;;;;;;;;;;;;;;13.15;80.16;101463.72;4950118;28;19923;-41
2023/04/16 11:33:11;;;;;;;;;;;;;;;13.60;79.96;101469.63;4944703;28;19926;-41
2023/04/16 11:35:40;;;;;;;;;;;;;;;13.34;84.80;101405.06;4943888;28;19934;-41
2023/04/16 11:38:06;;;;;;;;;;;;;;;13.18;88.92;101375.78;4939541;28;19933;-41
2023/04/16 11:40:31;;;;;;;;;;;;;;;13.69;87.42;101378.09;4942113;28;20049;-41
2023/04/16 11:43:00;;;;;;;;;;;;;;;13.35;94.88;101316.19;4942997;28;19922;-41
2023/04/16 11:45:26;;;;;;;;;;;;;;;13.41;89.92;101322.19;4943219;28;20249;-41
2023/04/16 11:47:53;;;;;;;;;;;;;;;13.59;92.84;101322.94;4943446;28;19983;-41
2023/04/16 11:50:22;;;;;;;;;;;;;;;14.00;95.93;101297.53;4943752;28;19926;-41
2023/04/16 11:52:47;;;;;;;;;;;;;;;13.13;100.00;101214.50;4945622;28;20045;-41
2023/04/16 11:55:12;;;;;;;;;;;;;;;13.29;100.00;101210.09;4945388;28;19965;-40
2023/04/16 11:57:38;;;;;;;;;;;;;;;12.63;100.00;101176.03;4943143;28;19949;-41
2023/04/16 12:00:04;;;;;;;;;;;;;;;13.49;98.24;101253.09;4943624;28;19925;-41
2023/04/16 12:02:33;;;;;;;;;;;;;;;13.48;100.00;101218.59;4944781;28;19933;-41
2023/04/16 12:04:58;;;;;;;;;;;;;;;14.39;100.00;101238.38;4943410;28;19922;-41
2023/04/16 12:07:24;;;;;;;;;;;;;;;15.13;100.00;101199.38;4942416;28;19929;-41
2023/04/16 12:09:49;;;;;;;;;;;;;;;14.29;100.00;101109.81;4941724;28;19922;-41
2023/04/16 12:12:29;;;;;;;;;;;;;;;13.34;100.00;101049.63;4941537;28;20355;-41
2023/04/16 12:14:55;;;;;;;;;;;;;;;14.44;100.00;101112.19;4943408;28;19965;-41
2023/04/16 12:17:21;;;;;;;;;;;;;;;14.85;100.00;101062.31;4944039;28;19944;-41
2023/04/16 12:19:55;;;;;;;;;;;;;;;15.22;100.00;100990.72;4943790;28;20334;-41
2023/04/16 12:22:28;;;;;;;;;;;;;;;14.57;100.00;100895.97;4940601;28;19936;-41
2023/04/16 12:24:59;;;;;;;;;;;;;;;14.42;100.00;100819.28;4942708;28;20017;-41
2023/04/16 12:27:28;;;;;;;;;;;;;;;13.73;100.00;100817.00;4940086;28;19923;-41
2023/04/16 12:30:06;;;;;;;;;;;;;;;14.09;100.00;100851.81;4943009;28;20043;-41